Time;durP1;ratioP1;P1;durP2;ratioP2;P2;SDS_P1;SDS_P2;PMS_P1;PMS_P2;Temp;Humidity;BMP_temperature;BMP_pressure;BME280_temperature;BME280_humidity;BME280_pressure;Samples;Min_cycle;Max_cycle;Signal;HPM_P1;HPM_P2
2021/12/30 00:01:17;;;;;;;60.83;19.30;;;;;;;-2.17;100.00;100920.08;1744484;82;21053;-64
2021/12/30 00:03:46;;;;;;;52.30;18.37;;;;;;;-2.19;100.00;100925.91;1744635;82;21558;-63
2021/12/30 00:06:14;;;;;;;57.15;19.50;;;;;;;-2.16;100.00;100924.70;1744497;81;21003;-64
2021/12/30 00:08:43;;;;;;;52.38;19.67;;;;;;;-2.17;100.00;100930.56;1744361;81;20988;-64
2021/12/30 00:11:11;;;;;;;58.28;20.68;;;;;;;-2.15;100.00;100921.34;1744278;82;21011;-63
2021/12/30 00:13:40;;;;;;;58.25;21.70;;;;;;;-2.18;100.00;100923.84;1744228;82;21011;-64
2021/12/30 00:16:08;;;;;;;63.45;22.80;;;;;;;-2.21;100.00;100930.92;1744506;82;21018;-64
2021/12/30 00:18:35;;;;;;;67.78;24.05;;;;;;;-2.13;100.00;100938.60;1744453;82;21564;-64
2021/12/30 00:21:01;;;;;;;71.70;24.60;;;;;;;-2.17;100.00;100942.78;1744537;82;21039;-64
2021/12/30 00:23:28;;;;;;;67.25;22.60;;;;;;;-2.12;100.00;100936.11;1744200;81;21105;-64
2021/12/30 00:25:55;;;;;;;59.48;21.52;;;;;;;-2.12;100.00;100939.05;1744582;82;21046;-64
2021/12/30 00:28:23;;;;;;;69.12;22.52;;;;;;;-2.11;100.00;100939.09;1744097;81;21074;-63
2021/12/30 00:30:52;;;;;;;61.35;22.15;;;;;;;-2.06;100.00;100940.41;1744468;81;21475;-63
2021/12/30 00:33:21;;;;;;;67.97;22.32;;;;;;;-2.10;100.00;100935.72;1744447;82;21045;-63
2021/12/30 00:35:48;;;;;;;71.85;22.48;;;;;;;-2.08;100.00;100939.53;1744558;82;20998;-64
2021/12/30 00:38:16;;;;;;;64.10;21.62;;;;;;;-2.09;100.00;100936.56;1744229;82;21062;-64
2021/12/30 00:40:43;;;;;;;69.37;21.75;;;;;;;-2.07;100.00;100938.30;1744373;82;21018;-63
2021/12/30 00:43:10;;;;;;;67.37;22.40;;;;;;;-2.02;100.00;100937.94;1744491;82;20991;-63
2021/12/30 00:45:39;;;;;;;69.07;22.55;;;;;;;-2.08;100.00;100942.89;1744211;82;21082;-63
2021/12/30 00:48:07;;;;;;;55.98;22.35;;;;;;;-2.02;100.00;100942.14;1744258;82;21074;-63
2021/12/30 00:50:38;;;;;;;53.73;20.88;;;;;;;-2.04;100.00;100938.75;1744163;82;21491;-63
2021/12/30 00:53:08;;;;;;;63.40;21.27;;;;;;;-2.05;100.00;100938.30;1744531;82;21065;-64
2021/12/30 00:55:36;;;;;;;55.88;21.25;;;;;;;-2.08;100.00;100936.59;1744420;81;21522;-64
2021/12/30 00:58:04;;;;;;;63.83;22.07;;;;;;;-2.08;100.00;100939.53;1744391;81;21065;-64
2021/12/30 01:00:33;;;;;;;75.57;22.13;;;;;;;-2.06;100.00;100934.09;1744317;82;21567;-64
2021/12/30 01:03:00;;;;;;;57.70;20.43;;;;;;;-2.09;100.00;100934.91;1744440;81;21090;-64
2021/12/30 01:05:28;;;;;;;64.80;21.73;;;;;;;-2.07;100.00;100942.48;1744221;82;21082;-63
2021/12/30 01:07:56;;;;;;;60.05;23.40;;;;;;;-2.15;100.00;100941.52;1744469;81;21487;-64
2021/12/30 01:10:25;;;;;;;65.80;23.27;;;;;;;-2.12;100.00;100936.53;1743982;82;21020;-64
2021/12/30 01:12:55;;;;;;;59.25;22.20;;;;;;;-2.19;100.00;100946.92;1744513;81;21049;-63
2021/12/30 01:15:34;;;;;;;61.23;21.97;;;;;;;-2.14;100.00;100942.80;1744520;81;21513;-64
2021/12/30 01:18:20;;;;;;;62.45;23.85;;;;;;;-2.17;100.00;100947.82;1743212;82;21604;-64
2021/12/30 01:20:26;;;;;;;61.37;22.10;;;;;;;-2.16;100.00;100944.88;1742158;82;21026;-64
2021/12/30 01:22:53;;;;;;;53.73;21.77;;;;;;;-2.11;100.00;100949.17;1744467;82;21124;-64
2021/12/30 01:25:21;;;;;;;58.08;21.90;;;;;;;-2.10;100.00;100952.12;1744136;81;21058;-63
2021/12/30 01:27:48;;;;;;;58.50;21.55;;;;;;;-2.07;100.00;100956.34;1744551;82;21042;-63
2021/12/30 01:30:19;;;;;;;56.23;20.08;;;;;;;-2.02;100.00;100958.55;1744667;81;20995;-64
2021/12/30 01:32:46;;;;;;;61.00;23.50;;;;;;;-2.09;100.00;100959.27;1744751;81;21038;-64
2021/12/30 01:35:22;;;;;;;53.92;20.20;;;;;;;-2.03;100.00;100956.83;1744182;82;21027;-63
2021/12/30 01:37:44;;;;;;;60.12;21.75;;;;;;;-2.08;100.00;100959.72;1744103;81;21558;-64
2021/12/30 01:40:15;;;;;;;57.35;21.05;;;;;;;-2.03;100.00;100953.05;1744313;82;21537;-64
2021/12/30 01:42:41;;;;;;;56.63;22.67;;;;;;;-2.07;100.00;100950.91;1744305;81;21592;-64
2021/12/30 01:45:10;;;;;;;58.52;23.00;;;;;;;-2.09;100.00;100956.73;1744372;82;21029;-63
2021/12/30 01:47:45;;;;;;;59.45;21.57;;;;;;;-2.06;100.00;100958.06;1744289;82;21628;-64
2021/12/30 01:50:07;;;;;;;57.43;23.10;;;;;;;-2.11;100.00;100955.48;1743700;81;21031;-64
2021/12/30 01:52:36;;;;;;;58.92;22.82;;;;;;;-2.06;100.00;100954.28;1744380;82;21006;-64
2021/12/30 01:55:04;;;;;;;57.85;23.02;;;;;;;-2.13;100.00;100956.26;1744303;82;21007;-64
2021/12/30 01:57:31;;;;;;;56.53;21.33;;;;;;;-2.10;100.00;100961.36;1744382;82;21026;-65
2021/12/30 01:59:58;;;;;;;60.03;22.35;;;;;;;-2.02;100.00;100956.02;1744402;82;21043;-64
2021/12/30 02:02:25;;;;;;;50.78;20.97;;;;;;;-2.05;100.00;100954.31;1744322;81;21069;-64
2021/12/30 02:04:52;;;;;;;51.33;21.85;;;;;;;-2.08;100.00;100950.89;1744344;82;21066;-64
2021/12/30 02:07:19;;;;;;;51.28;21.77;;;;;;;-2.10;100.00;100960.95;1744129;82;21007;-64
2021/12/30 02:09:47;;;;;;;57.27;21.90;;;;;;;-2.12;100.00;100961.34;1744088;82;21086;-64
2021/12/30 02:12:14;;;;;;;53.70;22.35;;;;;;;-2.16;100.00;100961.27;1723673;82;21554;-64
2021/12/30 02:14:41;;;;;;;55.98;22.80;;;;;;;-2.20;100.00;100968.36;1744295;81;21031;-64
2021/12/30 02:17:09;;;;;;;59.40;23.12;;;;;;;-2.16;100.00;100967.16;1744193;82;21003;-64
2021/12/30 02:19:36;;;;;;;51.58;21.65;;;;;;;-2.14;100.00;100967.19;1744430;81;21023;-64
2021/12/30 02:22:04;;;;;;;48.73;20.97;;;;;;;-2.10;100.00;100966.41;1744423;81;21019;-64
2021/12/30 02:24:31;;;;;;;45.83;20.15;;;;;;;-2.13;100.00;100971.00;1744467;82;21062;-64
2021/12/30 02:26:59;;;;;;;53.73;21.80;;;;;;;-2.16;100.00;100981.03;1744448;82;21066;-64
2021/12/30 02:29:27;;;;;;;53.60;21.12;;;;;;;-2.10;100.00;100979.02;1744348;82;21062;-64
2021/12/30 02:31:53;;;;;;;50.90;20.50;;;;;;;-2.14;100.00;100980.64;1744258;82;21100;-64
2021/12/30 02:34:21;;;;;;;50.58;20.20;;;;;;;-2.15;100.00;100980.22;1744461;82;21003;-64
2021/12/30 02:36:48;;;;;;;45.75;19.87;;;;;;;-2.13;100.00;100972.66;1744435;81;21023;-64
2021/12/30 02:39:19;;;;;;;49.42;21.62;;;;;;;-2.14;100.00;100968.45;1744537;82;21035;-64
2021/12/30 02:41:45;;;;;;;51.60;21.73;;;;;;;-2.12;100.00;100968.06;1744325;81;21031;-63
2021/12/30 02:44:13;;;;;;;53.38;21.42;;;;;;;-2.10;100.00;100967.67;1744619;82;21026;-63
2021/12/30 02:46:40;;;;;;;48.23;20.68;;;;;;;-2.06;100.00;100968.99;1744366;81;21039;-64
2021/12/30 02:49:08;;;;;;;56.13;20.85;;;;;;;-2.07;100.00;100979.05;1744253;82;21071;-63
2021/12/30 02:51:36;;;;;;;51.13;20.50;;;;;;;-2.11;100.00;100986.14;1744463;82;21034;-64
2021/12/30 02:54:05;;;;;;;57.50;21.60;;;;;;;-2.17;100.00;100987.30;1744442;81;21093;-63
2021/12/30 02:56:32;;;;;;;49.53;20.70;;;;;;;-2.12;100.00;100990.34;1744156;82;21042;-64
2021/12/30 02:58:59;;;;;;;53.00;21.12;;;;;;;-2.14;100.00;100995.77;1744540;82;20991;-64
2021/12/30 03:01:29;;;;;;;50.23;21.10;;;;;;;-2.16;100.00;100996.58;1744279;82;21006;-64
2021/12/30 03:04:00;;;;;;;52.62;19.98;;;;;;;-2.18;100.00;101001.59;1744627;81;21031;-64
2021/12/30 03:06:27;;;;;;;45.17;19.98;;;;;;;-2.16;100.00;101004.15;1744178;82;21066;-64
2021/12/30 03:08:54;;;;;;;47.05;19.55;;;;;;;-2.11;100.00;100995.84;1744476;82;21041;-64
2021/12/30 03:11:25;;;;;;;42.80;19.00;;;;;;;-2.18;100.00;100996.55;1744179;82;21022;-64
2021/12/30 03:13:53;;;;;;;46.60;19.48;;;;;;;-2.18;100.00;100993.19;1744578;80;21490;-64
2021/12/30 03:16:24;;;;;;;40.23;19.57;;;;;;;-2.15;100.00;100990.31;1744485;82;21065;-66
2021/12/30 03:18:53;;;;;;;49.58;20.72;;;;;;;-2.11;100.00;100995.84;1744649;82;20999;-66
2021/12/30 03:21:23;;;;;;;44.18;19.73;;;;;;;-2.08;100.00;100989.56;1744227;81;21118;-65
2021/12/30 03:23:50;;;;;;;46.25;20.97;;;;;;;-2.09;100.00;100995.45;1744721;82;21015;-65
2021/12/30 03:26:21;;;;;;;49.70;21.15;;;;;;;-2.04;100.00;100995.52;1744371;82;21034;-66
2021/12/30 03:28:49;;;;;;;45.67;20.37;;;;;;;-2.04;100.00;100995.09;1744583;82;20955;-66
2021/12/30 03:31:18;;;;;;;47.50;20.23;;;;;;;-2.11;100.00;100990.80;1744527;82;21506;-65
2021/12/30 03:33:46;;;;;;;49.67;20.43;;;;;;;-2.10;100.00;100997.52;1743968;81;20994;-66
2021/12/30 03:36:13;;;;;;;47.67;21.17;;;;;;;-2.12;100.00;100996.65;1744289;82;21058;-65
2021/12/30 03:38:45;;;;;;;49.42;20.95;;;;;;;-2.10;100.00;100999.20;1744381;82;21116;-65
2021/12/30 03:41:15;;;;;;;47.93;21.85;;;;;;;-2.11;100.00;101000.01;1744494;82;21027;-65
2021/12/30 03:43:42;;;;;;;47.30;21.45;;;;;;;-2.14;100.00;101007.55;1740514;82;21551;-65
2021/12/30 03:46:10;;;;;;;47.95;21.25;;;;;;;-2.15;100.00;101007.97;1739627;81;21026;-65
2021/12/30 03:48:42;;;;;;;55.38;23.40;;;;;;;-2.15;100.00;101006.70;1739739;82;21098;-66
2021/12/30 03:51:11;;;;;;;50.43;21.00;;;;;;;-2.08;100.00;101011.42;1739416;82;21384;-66
2021/12/30 03:53:42;;;;;;;51.45;21.93;;;;;;;-2.14;100.00;101011.33;1739906;81;21014;-65
2021/12/30 03:56:12;;;;;;;42.35;19.92;;;;;;;-2.17;100.00;101010.00;1739399;82;21103;-66
2021/12/30 03:58:42;;;;;;;49.18;20.95;;;;;;;-2.19;100.00;101009.13;1739660;81;20979;-65
2021/12/30 04:01:11;;;;;;;46.88;20.80;;;;;;;-2.23;100.00;101009.48;1739744;82;22221;-66
2021/12/30 04:03:38;;;;;;;47.23;21.15;;;;;;;-2.28;100.00;101016.98;1739794;82;20986;-66
2021/12/30 04:06:05;;;;;;;50.52;22.15;;;;;;;-2.25;100.00;101012.00;1739555;82;21047;-65
2021/12/30 04:08:34;;;;;;;55.52;22.40;;;;;;;-2.18;100.00;101017.15;1739596;82;21617;-65
2021/12/30 04:11:01;;;;;;;49.23;21.70;;;;;;;-2.20;100.00;101014.59;1739653;82;21066;-64
2021/12/30 04:13:29;;;;;;;51.20;22.05;;;;;;;-2.14;100.00;101011.33;1739692;82;21070;-64
2021/12/30 04:15:58;;;;;;;56.40;22.30;;;;;;;-2.22;100.00;101017.08;1739427;81;21063;-64
2021/12/30 04:18:26;;;;;;;57.05;22.20;;;;;;;-2.21;100.00;101019.19;1739743;82;20987;-64
2021/12/30 04:20:54;;;;;;;50.40;22.13;;;;;;;-2.16;100.00;101021.80;1739693;82;21503;-65
2021/12/30 04:23:22;;;;;;;57.65;23.15;;;;;;;-2.19;100.00;101027.63;1739693;82;21538;-64
2021/12/30 04:25:49;;;;;;;52.05;22.95;;;;;;;-2.13;100.00;101024.36;1739737;81;21530;-64
2021/12/30 04:28:16;;;;;;;57.08;24.52;;;;;;;-2.08;100.00;101035.39;1739771;81;20975;-64
2021/12/30 04:30:44;;;;;;;63.68;24.87;;;;;;;-2.07;100.00;101046.77;1739715;81;21553;-65
2021/12/30 04:33:11;;;;;;;53.58;24.18;;;;;;;-2.02;100.00;101048.09;1739436;82;21574;-64
2021/12/30 04:35:38;;;;;;;61.95;25.12;;;;;;;-2.09;100.00;101052.20;1739882;82;21011;-64
2021/12/30 04:38:05;;;;;;;52.50;23.00;;;;;;;-2.08;100.00;101052.62;1739527;82;21042;-64
2021/12/30 04:40:31;;;;;;;53.55;22.50;;;;;;;-2.14;100.00;101055.05;1739796;82;21065;-65
2021/12/30 04:42:58;;;;;;;51.85;22.05;;;;;;;-2.12;100.00;101058.86;1739831;82;21529;-64
2021/12/30 04:45:28;;;;;;;50.33;22.20;;;;;;;-2.15;100.00;101062.58;1739687;81;21006;-64
2021/12/30 04:47:55;;;;;;;50.40;22.15;;;;;;;-2.15;100.00;101065.10;1739826;82;21046;-64
2021/12/30 04:50:23;;;;;;;42.75;19.92;;;;;;;-2.13;100.00;101064.33;1739616;81;21451;-64
2021/12/30 04:52:49;;;;;;;52.23;21.82;;;;;;;-2.14;100.00;101065.55;1739742;81;20987;-64
2021/12/30 04:55:16;;;;;;;48.05;20.92;;;;;;;-2.11;100.00;101063.06;1739415;82;21069;-64
2021/12/30 04:57:43;;;;;;;46.55;20.12;;;;;;;-2.14;100.00;101069.34;1739626;82;21070;-64
2021/12/30 05:00:13;;;;;;;46.40;20.68;;;;;;;-2.15;100.00;101068.88;1739722;82;21483;-65
2021/12/30 05:05:26;;;;;;;48.75;22.10;;;;;;;-2.23;100.00;101078.45;1739714;81;21070;-64
2021/12/30 05:07:53;;;;;;;48.48;21.85;;;;;;;-2.24;100.00;101086.82;1739424;82;21038;-64
2021/12/30 05:10:21;;;;;;;46.73;20.62;;;;;;;-2.24;100.00;101084.72;1739383;81;20991;-64
2021/12/30 05:12:49;;;;;;;50.63;22.25;;;;;;;-2.22;100.00;101081.39;1739613;82;21039;-65
2021/12/30 05:15:15;;;;;;;49.50;21.68;;;;;;;-2.18;100.00;101075.16;1739809;82;21070;-65
2021/12/30 05:17:43;;;;;;;52.17;22.90;;;;;;;-2.17;100.00;101081.50;1739618;82;21510;-64
2021/12/30 05:20:12;;;;;;;52.80;23.15;;;;;;;-2.23;100.00;101082.23;1739851;82;21502;-64
2021/12/30 05:22:42;;;;;;;54.42;23.55;;;;;;;-2.18;100.00;101096.17;1739763;82;21023;-64
2021/12/30 05:25:12;;;;;;;52.58;24.02;;;;;;;-2.13;100.00;101089.94;1739720;81;21027;-64
2021/12/30 05:27:39;;;;;;;49.48;24.02;;;;;;;-2.14;100.00;101094.56;1739672;81;21062;-64
2021/12/30 05:30:11;;;;;;;49.00;23.32;;;;;;;-2.10;100.00;101088.74;1739596;81;21543;-64
2021/12/30 05:32:40;;;;;;;57.50;24.80;;;;;;;-2.10;100.00;101093.38;1739770;81;20987;-64
2021/12/30 05:35:09;;;;;;;48.95;23.92;;;;;;;-2.07;100.00;101097.61;1739637;82;21563;-65
2021/12/30 05:37:38;;;;;;;51.83;23.80;;;;;;;-2.10;100.00;101097.16;1739704;82;21043;-64
2021/12/30 05:40:09;;;;;;;49.35;21.87;;;;;;;-2.11;100.00;101095.86;1739436;81;21007;-65
2021/12/30 05:42:37;;;;;;;52.45;23.77;;;;;;;-2.08;100.00;101098.45;1739845;82;21007;-64
2021/12/30 05:45:06;;;;;;;51.20;22.70;;;;;;;-2.14;100.00;101095.41;1739411;82;21110;-64
2021/12/30 05:47:33;;;;;;;57.17;24.55;;;;;;;-2.16;100.00;101097.05;1739725;82;21483;-64
2021/12/30 05:50:07;;;;;;;63.30;26.97;;;;;;;-2.19;100.00;101101.18;1739331;82;21456;-64
2021/12/30 05:52:34;;;;;;;59.93;26.50;;;;;;;-2.23;100.00;101107.45;1739808;81;21062;-64
2021/12/30 05:55:01;;;;;;;49.23;24.43;;;;;;;-2.18;100.00;101115.09;1739594;82;21522;-64
2021/12/30 05:57:29;;;;;;;59.95;26.57;;;;;;;-2.13;100.00;101109.73;1740280;82;21113;-64
2021/12/30 05:59:57;;;;;;;58.10;25.02;;;;;;;-2.06;100.00;101117.83;1744181;82;21551;-65
2021/12/30 06:02:25;;;;;;;62.15;27.52;;;;;;;-1.98;100.00;101123.01;1744330;82;21007;-64
2021/12/30 06:04:52;;;;;;;52.50;24.87;;;;;;;-1.97;100.00;101115.02;1744097;82;21070;-64
2021/12/30 06:07:18;;;;;;;59.27;26.68;;;;;;;-1.92;100.00;101118.06;1744046;82;21058;-64
2021/12/30 06:09:46;;;;;;;59.80;27.75;;;;;;;-1.84;100.00;101121.98;1744312;81;21519;-64
2021/12/30 06:12:13;;;;;;;58.23;26.73;;;;;;;-1.74;100.00;101127.63;1743332;81;21062;-64
2021/12/30 06:14:40;;;;;;;60.48;28.30;;;;;;;-1.86;100.00;101140.88;1744176;81;21085;-64
2021/12/30 06:17:08;;;;;;;52.90;24.98;;;;;;;-1.79;100.00;101139.30;1744432;82;21051;-64
2021/12/30 06:19:35;;;;;;;63.08;27.02;;;;;;;-1.79;100.00;101147.29;1744500;81;21011;-64
2021/12/30 06:22:03;;;;;;;56.85;25.70;;;;;;;-1.70;100.00;101143.67;1744387;82;21046;-64
2021/12/30 06:24:32;;;;;;;56.75;25.50;;;;;;;-1.71;100.00;101149.53;1752263;81;21018;-65
2021/12/30 06:27:01;;;;;;;56.75;25.75;;;;;;;-1.72;100.00;101147.84;1747071;81;20999;-64
2021/12/30 06:29:29;;;;;;;58.45;26.25;;;;;;;-1.69;100.00;101150.41;1721445;82;21020;-64
2021/12/30 06:31:57;;;;;;;54.48;24.30;;;;;;;-1.66;100.00;101151.73;1759242;81;20972;-65
2021/12/30 06:34:26;;;;;;;53.75;25.50;;;;;;;-1.52;100.00;101152.80;1723896;82;20994;-65
2021/12/30 06:36:53;;;;;;;58.23;26.02;;;;;;;-1.47;100.00;101150.34;1757725;80;21041;-64
2021/12/30 06:39:20;;;;;;;54.20;24.60;;;;;;;-1.57;100.00;101154.38;1760213;80;21015;-64
2021/12/30 06:41:46;;;;;;;56.18;26.07;;;;;;;-1.41;100.00;101155.48;1760597;81;21044;-64
2021/12/30 06:44:13;;;;;;;51.33;24.43;;;;;;;-1.45;100.00;101158.36;1758692;80;21032;-64
2021/12/30 06:46:48;;;;;;;46.68;22.82;;;;;;;-1.39;100.00;101154.25;1759158;81;21016;-65
2021/12/30 06:49:19;;;;;;;49.35;23.62;;;;;;;-1.48;100.00;101159.98;1762690;80;20985;-65
2021/12/30 06:51:46;;;;;;;52.17;24.10;;;;;;;-1.49;100.00;101158.30;1758389;81;20999;-65
2021/12/30 06:54:12;;;;;;;54.13;26.00;;;;;;;-1.32;100.00;101164.86;1762280;80;21038;-65
2021/12/30 06:56:39;;;;;;;64.22;27.98;;;;;;;-1.30;100.00;101160.69;1760742;81;21011;-65
2021/12/30 06:59:06;;;;;;;53.85;24.40;;;;;;;-1.19;100.00;101165.92;1761636;80;20957;-65
2021/12/30 07:01:33;;;;;;;51.50;25.25;;;;;;;-1.22;100.00;101169.23;1759654;79;21041;-65
2021/12/30 07:04:00;;;;;;;54.55;24.92;;;;;;;-1.15;100.00;101164.72;1757939;80;21023;-65
2021/12/30 07:06:26;;;;;;;53.23;25.57;;;;;;;-1.11;100.00;101175.30;1756197;81;21053;-65
2021/12/30 07:08:53;;;;;;;57.80;26.77;;;;;;;-1.07;100.00;101169.88;1761857;81;20964;-64
2021/12/30 07:11:21;;;;;;;53.92;26.02;;;;;;;-1.03;100.00;101174.16;1757897;80;21762;-65
2021/12/30 07:13:48;;;;;;;58.23;28.35;;;;;;;-0.96;100.00;101176.34;1761888;80;21055;-65
2021/12/30 07:16:15;;;;;;;60.98;28.87;;;;;;;-0.93;100.00;101183.95;1759718;81;21476;-65
2021/12/30 07:18:41;;;;;;;70.20;31.73;;;;;;;-0.99;100.00;101189.80;1761250;80;21051;-65
2021/12/30 07:21:08;;;;;;;71.33;32.23;;;;;;;-1.01;100.00;101192.29;1737711;81;21000;-64
2021/12/30 07:23:36;;;;;;;65.55;30.23;;;;;;;-0.87;100.00;101197.97;1761825;80;21015;-64
2021/12/30 07:26:03;;;;;;;64.70;29.72;;;;;;;-0.85;100.00;101196.31;1757999;81;21022;-64
2021/12/30 07:28:30;;;;;;;56.75;27.48;;;;;;;-0.79;100.00;101197.66;1762059;80;21409;-65
2021/12/30 07:30:57;;;;;;;64.37;28.67;;;;;;;-0.85;100.00;101203.47;1757960;81;21051;-65
2021/12/30 07:33:24;;;;;;;55.73;26.33;;;;;;;-0.72;100.00;101204.48;1759760;80;21048;-64
2021/12/30 07:35:50;;;;;;;58.58;27.25;;;;;;;-0.70;100.00;101201.55;1744586;81;21053;-64
2021/12/30 07:38:17;;;;;;;56.45;26.02;;;;;;;-0.72;100.00;101208.69;1708701;84;21041;-65
2021/12/30 07:40:44;;;;;;;56.75;25.88;;;;;;;-0.80;100.00;101216.16;1743658;82;21532;-64
2021/12/30 07:43:11;;;;;;;56.48;25.55;;;;;;;-0.71;100.00;101210.37;1708649;84;21050;-64
2021/12/30 07:45:38;;;;;;;52.45;24.20;;;;;;;-0.69;100.00;101207.45;1744353;82;21068;-65
2021/12/30 07:48:06;;;;;;;53.13;24.18;;;;;;;-0.76;100.00;101209.05;1744520;82;22606;-64
2021/12/30 07:50:34;;;;;;;53.38;25.00;;;;;;;-0.66;100.00;101210.88;1708761;84;21529;-64
2021/12/30 07:53:00;;;;;;;58.10;27.05;;;;;;;-0.57;100.00;101212.67;1744390;82;21037;-64
2021/12/30 07:55:27;;;;;;;49.38;23.30;;;;;;;-0.59;100.00;101218.55;1708640;84;21109;-64
2021/12/30 07:57:57;;;;;;;50.75;23.83;;;;;;;-0.58;100.00;101216.47;1678661;84;21063;-64
2021/12/30 08:00:23;;;;;;;52.58;23.50;;;;;;;-0.48;100.00;101217.86;1678113;85;21051;-64
2021/12/30 08:02:50;;;;;;;49.23;23.12;;;;;;;-0.39;100.00;101220.06;1679952;84;21062;-64
2021/12/30 08:05:19;;;;;;;51.58;23.25;;;;;;;-0.42;100.00;101225.95;1678650;84;20983;-64
2021/12/30 08:07:48;;;;;;;45.98;22.00;;;;;;;-0.28;100.00;101220.64;1678361;85;21062;-64
2021/12/30 08:10:18;;;;;;;51.73;24.90;;;;;;;-0.30;100.00;101218.50;1680093;85;21552;-64
2021/12/30 08:12:48;;;;;;;45.33;21.70;;;;;;;-0.23;100.00;101228.27;1678639;84;21082;-65
2021/12/30 08:15:17;;;;;;;48.00;21.00;;;;;;;-0.17;100.00;101218.22;1680322;85;21145;-64
2021/12/30 08:17:46;;;;;;;43.95;21.25;;;;;;;-0.12;100.00;101218.27;1678781;85;21007;-64
2021/12/30 08:20:14;;;;;;;42.95;21.40;;;;;;;-0.08;100.00;101222.53;1678710;84;21054;-64
2021/12/30 08:22:42;;;;;;;51.02;23.98;;;;;;;-0.10;100.00;101226.33;1678269;85;21054;-65
2021/12/30 08:25:12;;;;;;;45.78;21.73;;;;;;;-0.07;100.00;101221.29;1678498;84;21050;-64
2021/12/30 08:27:41;;;;;;;44.38;22.02;;;;;;;-0.02;100.00;101223.86;1678871;85;21605;-64
2021/12/30 08:30:13;;;;;;;44.45;21.68;;;;;;;0.06;100.00;101217.62;1678446;84;21582;-64
2021/12/30 08:32:41;;;;;;;48.65;23.52;;;;;;;-0.01;100.00;101220.52;1692783;84;21009;-65
2021/12/30 08:35:11;;;;;;;62.13;28.90;;;;;;;0.05;100.00;101215.52;1692461;84;21067;-64
2021/12/30 08:37:41;;;;;;;59.23;28.17;;;;;;;0.06;100.00;101218.89;1685031;84;21029;-65
2021/12/30 08:40:10;;;;;;;57.80;28.52;;;;;;;0.08;100.00;101218.48;1708542;83;21071;-65
2021/12/30 08:42:38;;;;;;;61.37;29.70;;;;;;;0.13;100.00;101220.66;1707376;83;21517;-65
2021/12/30 08:45:08;;;;;;;58.80;29.20;;;;;;;0.11;100.00;101224.44;1707067;83;21040;-65
2021/12/30 08:47:36;;;;;;;64.92;28.23;;;;;;;0.16;100.00;101225.74;1706934;82;21481;-65
2021/12/30 08:50:11;;;;;;;59.20;27.13;;;;;;;0.13;100.00;101222.77;1706520;83;21044;-65
2021/12/30 08:52:38;;;;;;;59.50;28.77;;;;;;;0.20;100.00;101228.73;1714067;82;21035;-65
2021/12/30 08:55:07;;;;;;;65.67;28.98;;;;;;;0.11;100.00;101228.23;1711907;82;21092;-64
2021/12/30 08:57:39;;;;;;;71.25;31.20;;;;;;;-0.07;100.00;101226.77;1715874;82;21559;-65
2021/12/30 09:00:13;;;;;;;71.55;31.60;;;;;;;0.05;100.00;101228.59;1773333;80;21031;-64
2021/12/30 09:02:40;;;;;;;65.75;30.72;;;;;;;0.10;100.00;101232.01;1775075;81;21483;-64
2021/12/30 09:05:08;;;;;;;62.93;29.87;;;;;;;0.21;100.00;101230.88;1774930;81;21559;-64
2021/12/30 09:07:36;;;;;;;66.87;31.65;;;;;;;0.23;100.00;101228.78;1774952;80;21567;-65
2021/12/30 09:10:08;;;;;;;60.80;28.55;;;;;;;0.27;100.00;101225.88;1774872;81;20988;-65
2021/12/30 09:12:37;;;;;;;;;;;;;;;0.32;100.00;101227.59;1777334;81;21027;-64
2021/12/30 09:15:06;;;;;;;64.72;28.83;;;;;;;0.24;100.00;101227.09;1774703;81;20101;-64
2021/12/30 09:17:33;;;;;;;60.40;29.75;;;;;;;0.28;100.00;101227.55;1774807;81;21563;-65
2021/12/30 09:20:00;;;;;;;65.08;30.52;;;;;;;0.30;100.00;101222.92;1774779;80;21004;-65
2021/12/30 09:22:28;;;;;;;62.95;30.12;;;;;;;0.44;100.00;101229.39;1774882;81;21068;-64
2021/12/30 09:24:55;;;;;;;64.72;30.35;;;;;;;0.44;100.00;101225.59;1775074;81;21051;-65
2021/12/30 09:27:22;;;;;;;62.78;29.67;;;;;;;0.45;100.00;101229.84;1775058;80;21488;-64
2021/12/30 09:29:48;;;;;;;65.55;30.20;;;;;;;0.43;100.00;101225.18;1775034;80;21019;-64
2021/12/30 09:32:15;;;;;;;65.65;29.95;;;;;;;0.50;100.00;101219.31;1775078;80;21074;-64
2021/12/30 09:34:42;;;;;;;62.83;30.02;;;;;;;0.54;100.00;101219.77;1752064;81;21071;-65
2021/12/30 09:37:10;;;;;;;63.58;29.80;;;;;;;0.56;100.00;101220.63;1775093;81;21019;-65
2021/12/30 09:39:38;;;;;;;64.03;30.00;;;;;;;0.74;100.00;101222.90;1775104;81;20972;-65
2021/12/30 09:42:07;;;;;;;71.47;31.57;;;;;;;0.82;100.00;101225.50;1774902;80;21489;-64
2021/12/30 09:44:35;;;;;;;77.92;35.13;;;;;;;0.83;100.00;101220.42;1775173;80;21452;-64
2021/12/30 09:47:03;;;;;;;71.20;33.33;;;;;;;0.83;100.00;101228.45;1774818;81;21063;-64
2021/12/30 09:49:29;;;;;;;71.47;33.08;;;;;;;0.82;100.00;101222.54;1774939;79;21564;-64
2021/12/30 09:51:56;;;;;;;64.87;32.10;;;;;;;0.82;100.00;101234.38;1774796;81;21032;-65
2021/12/30 09:54:23;;;;;;;72.08;32.67;;;;;;;0.83;100.00;101224.22;1774847;81;21083;-64
2021/12/30 09:56:52;;;;;;;71.57;33.20;;;;;;;0.82;100.00;101233.10;1774772;81;21084;-64
2021/12/30 09:59:24;;;;;;;76.82;34.73;;;;;;;0.83;100.00;101229.72;1775005;81;21039;-64
2021/12/30 10:01:53;;;;;;;74.53;33.38;;;;;;;0.86;100.00;101227.22;1775190;80;21011;-64
2021/12/30 10:04:30;;;;;;;76.75;34.98;;;;;;;0.74;100.00;101220.36;1774929;80;21031;-64
2021/12/30 10:06:58;;;;;;;80.22;34.78;;;;;;;0.63;100.00;101227.02;1775018;80;21043;-65
2021/12/30 10:09:45;;;;;;;80.32;36.38;;;;;;;0.76;100.00;101221.22;1775192;81;21496;-65
2021/12/30 10:12:08;;;;;;;70.78;34.75;;;;;;;0.91;100.00;101221.35;1774447;81;21425;-64
2021/12/30 10:14:37;;;;;;;72.85;33.58;;;;;;;0.94;100.00;101209.11;1775007;80;21024;-64
2021/12/30 10:17:24;;;;;;;68.85;32.63;;;;;;;0.78;100.00;101223.35;1774727;80;21118;-65
2021/12/30 10:19:54;;;;;;;93.72;38.88;;;;;;;0.79;100.00;101225.03;1774709;81;21551;-65
2021/12/30 10:22:24;;;;;;;94.87;40.78;;;;;;;0.94;100.00;101221.36;1775053;80;21051;-65
2021/12/30 10:24:52;;;;;;;87.05;36.90;;;;;;;1.05;100.00;101216.78;1775036;81;21527;-65
2021/12/30 10:27:29;;;;;;;86.30;36.73;;;;;;;1.02;100.00;101226.91;1774937;81;21046;-65
2021/12/30 10:29:57;;;;;;;88.40;37.33;;;;;;;1.10;100.00;101224.01;1775054;81;21047;-65
2021/12/30 10:32:28;;;;;;;90.10;39.05;;;;;;;0.90;100.00;101227.24;1774664;80;21004;-65
2021/12/30 10:35:14;;;;;;;91.95;38.60;;;;;;;1.05;100.00;101230.72;1774829;80;21039;-66
2021/12/30 10:37:46;;;;;;;89.22;38.78;;;;;;;1.11;100.00;101223.15;1775057;80;21056;-65
2021/12/30 10:40:30;;;;;;;99.52;41.58;;;;;;;1.11;100.00;101228.22;1772917;81;21530;-65
2021/12/30 10:43:44;;;;;;;84.70;36.33;;;;;;;1.19;100.00;101225.31;1774657;81;21044;-65
2021/12/30 10:46:19;;;;;;;73.35;34.90;;;;;;;1.23;100.00;101219.42;1771892;81;21058;-64
2021/12/30 10:48:58;;;;;;;73.40;33.55;;;;;;;1.28;100.00;101220.70;1774679;79;21044;-65
2021/12/30 10:51:41;;;;;;;61.53;29.75;;;;;;;1.25;100.00;101213.09;1775006;80;21092;-66
2021/12/30 10:54:19;;;;;;;52.62;25.37;;;;;;;1.25;100.00;101210.56;1774975;81;21039;-65
2021/12/30 10:57:05;;;;;;;55.20;25.82;;;;;;;1.29;100.00;101208.04;1774063;81;21028;-65
2021/12/30 10:59:36;;;;;;;58.02;27.07;;;;;;;1.16;100.00;101213.47;1775197;80;21055;-65
2021/12/30 11:02:17;;;;;;;65.50;29.80;;;;;;;1.22;100.00;101207.59;1775085;80;21021;-65
2021/12/30 11:04:56;;;;;;;74.03;30.62;;;;;;;1.11;100.00;101215.55;1774830;80;21032;-65
2021/12/30 11:07:29;;;;;;;76.80;33.25;;;;;;;1.12;100.00;101218.09;1775038;80;21563;-65
2021/12/30 11:09:59;;;;;;;78.42;32.70;;;;;;;1.14;100.00;101215.16;1769337;81;21525;-65
2021/12/30 11:12:35;;;;;;;82.50;32.48;;;;;;;1.15;100.00;101221.91;1776835;80;20973;-65
2021/12/30 11:15:06;;;;;;;77.90;31.30;;;;;;;1.22;100.00;101220.28;1775238;81;21135;-65